sensor_id;sensor_type;location;lat;lon;timestamp;P1;durP1;ratioP1;P2;durP2;ratioP2
39486;SDS011;25173;50.430;18.926;2022-07-04T00:02:09;12.68;;;11.38;;
39486;SDS011;25173;50.430;18.926;2022-07-04T00:05:10;14.45;;;12.52;;
39486;SDS011;25173;50.430;18.926;2022-07-04T00:08:11;15.43;;;10.82;;
39486;SDS011;25173;50.430;18.926;2022-07-04T00:11:12;22.33;;;13.07;;
39486;SDS011;25173;50.430;18.926;2022-07-04T00:14:13;27.67;;;13.93;;
39486;SDS011;25173;50.430;18.926;2022-07-04T00:17:13;17.13;;;12.80;;
39486;SDS011;25173;50.430;18.926;2022-07-04T00:20:14;19.75;;;11.93;;
39486;SDS011;25173;50.430;18.926;2022-07-04T00:23:15;18.48;;;11.30;;
39486;SDS011;25173;50.430;18.926;2022-07-04T00:26:15;13.23;;;11.50;;
39486;SDS011;25173;50.430;18.926;2022-07-04T00:29:16;12.85;;;11.18;;
39486;SDS011;25173;50.430;18.926;2022-07-04T00:32:17;15.13;;;10.80;;
39486;SDS011;25173;50.430;18.926;2022-07-04T00:35:18;12.57;;;11.10;;
39486;SDS011;25173;50.430;18.926;2022-07-04T00:38:19;12.32;;;10.23;;
39486;SDS011;25173;50.430;18.926;2022-07-04T00:41:19;13.18;;;9.80;;
39486;SDS011;25173;50.430;18.926;2022-07-04T00:44:20;11.48;;;9.45;;
39486;SDS011;25173;50.430;18.926;2022-07-04T00:47:21;10.55;;;9.48;;
39486;SDS011;25173;50.430;18.926;2022-07-04T00:50:22;12.30;;;10.75;;
39486;SDS011;25173;50.430;18.926;2022-07-04T00:53:25;23.35;;;12.48;;
39486;SDS011;25173;50.430;18.926;2022-07-04T00:56:26;17.35;;;12.23;;
39486;SDS011;25173;50.430;18.926;2022-07-04T00:59:27;22.58;;;10.65;;
39486;SDS011;25173;50.430;18.926;2022-07-04T01:02:28;15.52;;;11.23;;
39486;SDS011;25173;50.430;18.926;2022-07-04T01:05:29;15.85;;;10.60;;
39486;SDS011;25173;50.430;18.926;2022-07-04T01:08:29;14.85;;;10.65;;
39486;SDS011;25173;50.430;18.926;2022-07-04T01:11:31;12.27;;;10.50;;
39486;SDS011;25173;50.430;18.926;2022-07-04T01:14:31;15.10;;;11.35;;
39486;SDS011;25173;50.430;18.926;2022-07-04T01:17:32;12.55;;;10.13;;
39486;SDS011;25173;50.430;18.926;2022-07-04T01:20:34;18.95;;;11.45;;
39486;SDS011;25173;50.430;18.926;2022-07-04T01:23:40;16.63;;;10.30;;
39486;SDS011;25173;50.430;18.926;2022-07-04T01:26:41;12.68;;;9.82;;
39486;SDS011;25173;50.430;18.926;2022-07-04T01:29:41;10.68;;;8.98;;
39486;SDS011;25173;50.430;18.926;2022-07-04T01:32:42;12.13;;;10.38;;
39486;SDS011;25173;50.430;18.926;2022-07-04T01:35:46;14.82;;;10.02;;
39486;SDS011;25173;50.430;18.926;2022-07-04T01:38:47;12.60;;;9.25;;
39486;SDS011;25173;50.430;18.926;2022-07-04T01:41:48;12.63;;;8.80;;
39486;SDS011;25173;50.430;18.926;2022-07-04T01:44:48;14.65;;;9.10;;
39486;SDS011;25173;50.430;18.926;2022-07-04T01:47:49;11.70;;;8.18;;
39486;SDS011;25173;50.430;18.926;2022-07-04T01:50:49;11.15;;;8.73;;
39486;SDS011;25173;50.430;18.926;2022-07-04T01:53:50;16.55;;;8.73;;
39486;SDS011;25173;50.430;18.926;2022-07-04T01:56:51;11.95;;;8.88;;
39486;SDS011;25173;50.430;18.926;2022-07-04T01:59:52;14.82;;;8.20;;
39486;SDS011;25173;50.430;18.926;2022-07-04T02:03:11;9.38;;;7.75;;
39486;SDS011;25173;50.430;18.926;2022-07-04T02:06:12;11.63;;;8.48;;
39486;SDS011;25173;50.430;18.926;2022-07-04T02:09:13;11.65;;;8.13;;
39486;SDS011;25173;50.430;18.926;2022-07-04T02:12:16;15.70;;;7.90;;
39486;SDS011;25173;50.430;18.926;2022-07-04T02:15:39;12.57;;;8.15;;
39486;SDS011;25173;50.430;18.926;2022-07-04T02:18:41;13.93;;;7.35;;
39486;SDS011;25173;50.430;18.926;2022-07-04T02:21:42;15.85;;;9.23;;
39486;SDS011;25173;50.430;18.926;2022-07-04T02:24:43;11.55;;;8.90;;
39486;SDS011;25173;50.430;18.926;2022-07-04T02:27:44;12.68;;;8.27;;
39486;SDS011;25173;50.430;18.926;2022-07-04T02:30:45;12.27;;;8.60;;
39486;SDS011;25173;50.430;18.926;2022-07-04T02:33:45;13.98;;;8.57;;
39486;SDS011;25173;50.430;18.926;2022-07-04T02:36:46;11.27;;;7.32;;
39486;SDS011;25173;50.430;18.926;2022-07-04T02:39:47;10.35;;;8.40;;
39486;SDS011;25173;50.430;18.926;2022-07-04T02:42:47;14.48;;;8.07;;
39486;SDS011;25173;50.430;18.926;2022-07-04T02:45:48;12.13;;;8.15;;
39486;SDS011;25173;50.430;18.926;2022-07-04T02:48:49;11.95;;;6.95;;
39486;SDS011;25173;50.430;18.926;2022-07-04T02:51:49;8.60;;;7.00;;
39486;SDS011;25173;50.430;18.926;2022-07-04T02:54:50;15.10;;;7.95;;
39486;SDS011;25173;50.430;18.926;2022-07-04T02:57:52;12.75;;;7.63;;
39486;SDS011;25173;50.430;18.926;2022-07-04T03:00:53;15.10;;;8.30;;
39486;SDS011;25173;50.430;18.926;2022-07-04T03:03:54;11.27;;;7.45;;
39486;SDS011;25173;50.430;18.926;2022-07-04T03:06:54;13.32;;;7.30;;
39486;SDS011;25173;50.430;18.926;2022-07-04T03:09:55;15.45;;;7.78;;
39486;SDS011;25173;50.430;18.926;2022-07-04T03:12:55;12.95;;;7.72;;
39486;SDS011;25173;50.430;18.926;2022-07-04T03:15:56;12.20;;;8.00;;
39486;SDS011;25173;50.430;18.926;2022-07-04T03:18:57;15.93;;;9.20;;
39486;SDS011;25173;50.430;18.926;2022-07-04T03:21:58;12.52;;;8.95;;
39486;SDS011;25173;50.430;18.926;2022-07-04T03:24:58;33.03;;;23.67;;
39486;SDS011;25173;50.430;18.926;2022-07-04T03:27:59;30.25;;;20.30;;
39486;SDS011;25173;50.430;18.926;2022-07-04T03:31:00;23.83;;;16.33;;
39486;SDS011;25173;50.430;18.926;2022-07-04T03:34:00;20.25;;;12.45;;
39486;SDS011;25173;50.430;18.926;2022-07-04T03:37:01;18.35;;;12.27;;
39486;SDS011;25173;50.430;18.926;2022-07-04T03:40:02;17.35;;;10.93;;
39486;SDS011;25173;50.430;18.926;2022-07-04T03:43:03;18.63;;;11.82;;
39486;SDS011;25173;50.430;18.926;2022-07-04T03:46:08;21.23;;;12.20;;
39486;SDS011;25173;50.430;18.926;2022-07-04T03:49:09;19.35;;;9.98;;
39486;SDS011;25173;50.430;18.926;2022-07-04T03:52:09;12.23;;;8.80;;
39486;SDS011;25173;50.430;18.926;2022-07-04T03:55:10;14.00;;;8.70;;
39486;SDS011;25173;50.430;18.926;2022-07-04T03:58:11;12.73;;;9.02;;
39486;SDS011;25173;50.430;18.926;2022-07-04T04:01:12;14.95;;;9.57;;
39486;SDS011;25173;50.430;18.926;2022-07-04T04:04:13;13.73;;;10.02;;
39486;SDS011;25173;50.430;18.926;2022-07-04T04:07:32;14.43;;;10.27;;
39486;SDS011;25173;50.430;18.926;2022-07-04T04:10:32;14.48;;;10.65;;
39486;SDS011;25173;50.430;18.926;2022-07-04T04:13:33;14.45;;;10.20;;
39486;SDS011;25173;50.430;18.926;2022-07-04T04:16:34;12.60;;;10.15;;
39486;SDS011;25173;50.430;18.926;2022-07-04T04:19:35;12.88;;;10.27;;
39486;SDS011;25173;50.430;18.926;2022-07-04T04:22:35;16.77;;;10.65;;
39486;SDS011;25173;50.430;18.926;2022-07-04T04:25:36;14.55;;;10.07;;
39486;SDS011;25173;50.430;18.926;2022-07-04T04:28:37;11.13;;;9.95;;
39486;SDS011;25173;50.430;18.926;2022-07-04T04:31:37;15.38;;;10.57;;
39486;SDS011;25173;50.430;18.926;2022-07-04T04:34:38;12.68;;;9.18;;
39486;SDS011;25173;50.430;18.926;2022-07-04T04:37:39;16.58;;;10.02;;
39486;SDS011;25173;50.430;18.926;2022-07-04T04:40:40;11.07;;;8.98;;
39486;SDS011;25173;50.430;18.926;2022-07-04T04:43:40;13.68;;;9.90;;
39486;SDS011;25173;50.430;18.926;2022-07-04T04:46:41;15.60;;;8.52;;
39486;SDS011;25173;50.430;18.926;2022-07-04T04:49:42;11.70;;;8.77;;
39486;SDS011;25173;50.430;18.926;2022-07-04T04:52:43;10.95;;;8.65;;
39486;SDS011;25173;50.430;18.926;2022-07-04T04:55:43;14.68;;;8.93;;
39486;SDS011;25173;50.430;18.926;2022-07-04T04:58:44;13.00;;;8.88;;
39486;SDS011;25173;50.430;18.926;2022-07-04T05:01:45;12.43;;;8.93;;
39486;SDS011;25173;50.430;18.926;2022-07-04T05:04:45;14.23;;;8.95;;
39486;SDS011;25173;50.430;18.926;2022-07-04T05:07:46;12.77;;;9.07;;
39486;SDS011;25173;50.430;18.926;2022-07-04T05:10:47;12.48;;;9.32;;
39486;SDS011;25173;50.430;18.926;2022-07-04T05:13:48;13.32;;;9.18;;
39486;SDS011;25173;50.430;18.926;2022-07-04T05:16:49;12.38;;;9.20;;
39486;SDS011;25173;50.430;18.926;2022-07-04T05:19:49;12.82;;;8.68;;
39486;SDS011;25173;50.430;18.926;2022-07-04T05:22:50;15.63;;;8.65;;
39486;SDS011;25173;50.430;18.926;2022-07-04T05:25:51;13.20;;;9.00;;
39486;SDS011;25173;50.430;18.926;2022-07-04T05:28:52;11.85;;;9.07;;
39486;SDS011;25173;50.430;18.926;2022-07-04T05:31:53;12.30;;;9.88;;
39486;SDS011;25173;50.430;18.926;2022-07-04T05:34:53;17.42;;;10.40;;
39486;SDS011;25173;50.430;18.926;2022-07-04T05:37:54;13.50;;;8.88;;
39486;SDS011;25173;50.430;18.926;2022-07-04T05:40:55;16.45;;;8.85;;
39486;SDS011;25173;50.430;18.926;2022-07-04T05:43:56;14.73;;;9.90;;
39486;SDS011;25173;50.430;18.926;2022-07-04T05:46:56;11.20;;;9.40;;
39486;SDS011;25173;50.430;18.926;2022-07-04T05:49:57;13.48;;;10.20;;
39486;SDS011;25173;50.430;18.926;2022-07-04T05:52:58;19.00;;;12.13;;
39486;SDS011;25173;50.430;18.926;2022-07-04T05:55:59;15.38;;;11.40;;
39486;SDS011;25173;50.430;18.926;2022-07-04T05:59:00;16.83;;;11.88;;
39486;SDS011;25173;50.430;18.926;2022-07-04T06:02:00;15.82;;;11.68;;
39486;SDS011;25173;50.430;18.926;2022-07-04T06:05:01;17.17;;;10.93;;
39486;SDS011;25173;50.430;18.926;2022-07-04T06:08:02;13.13;;;10.88;;
39486;SDS011;25173;50.430;18.926;2022-07-04T06:11:03;13.70;;;10.07;;
39486;SDS011;25173;50.430;18.926;2022-07-04T06:14:03;15.65;;;11.02;;
39486;SDS011;25173;50.430;18.926;2022-07-04T06:17:04;14.55;;;10.00;;
39486;SDS011;25173;50.430;18.926;2022-07-04T06:20:05;29.20;;;10.85;;
39486;SDS011;25173;50.430;18.926;2022-07-04T06:23:06;14.43;;;10.38;;
39486;SDS011;25173;50.430;18.926;2022-07-04T06:26:07;15.27;;;10.45;;
39486;SDS011;25173;50.430;18.926;2022-07-04T06:29:09;17.85;;;10.68;;
39486;SDS011;25173;50.430;18.926;2022-07-04T06:32:10;17.73;;;10.88;;
39486;SDS011;25173;50.430;18.926;2022-07-04T06:35:10;14.65;;;10.38;;
39486;SDS011;25173;50.430;18.926;2022-07-04T06:38:30;19.25;;;12.35;;
39486;SDS011;25173;50.430;18.926;2022-07-04T06:41:31;17.38;;;10.93;;
39486;SDS011;25173;50.430;18.926;2022-07-04T06:44:31;13.68;;;10.68;;
39486;SDS011;25173;50.430;18.926;2022-07-04T06:47:32;13.45;;;10.10;;
39486;SDS011;25173;50.430;18.926;2022-07-04T06:50:33;12.80;;;10.05;;
39486;SDS011;25173;50.430;18.926;2022-07-04T06:53:34;11.90;;;8.68;;
39486;SDS011;25173;50.430;18.926;2022-07-04T06:56:35;13.65;;;9.80;;
39486;SDS011;25173;50.430;18.926;2022-07-04T06:59:36;12.85;;;9.20;;
39486;SDS011;25173;50.430;18.926;2022-07-04T07:02:37;12.93;;;9.05;;
39486;SDS011;25173;50.430;18.926;2022-07-04T07:05:38;15.65;;;10.10;;
39486;SDS011;25173;50.430;18.926;2022-07-04T07:08:38;17.25;;;10.10;;
39486;SDS011;25173;50.430;18.926;2022-07-04T07:11:39;14.02;;;8.75;;
39486;SDS011;25173;50.430;18.926;2022-07-04T07:14:40;19.33;;;10.25;;
39486;SDS011;25173;50.430;18.926;2022-07-04T07:17:40;11.45;;;7.07;;
39486;SDS011;25173;50.430;18.926;2022-07-04T07:20:41;12.90;;;7.80;;
39486;SDS011;25173;50.430;18.926;2022-07-04T07:23:42;10.60;;;8.40;;
39486;SDS011;25173;50.430;18.926;2022-07-04T07:26:43;20.50;;;9.77;;
39486;SDS011;25173;50.430;18.926;2022-07-04T07:29:44;12.45;;;7.75;;
39486;SDS011;25173;50.430;18.926;2022-07-04T07:32:44;11.80;;;6.35;;
39486;SDS011;25173;50.430;18.926;2022-07-04T07:35:45;10.75;;;6.25;;
39486;SDS011;25173;50.430;18.926;2022-07-04T07:38:46;10.77;;;5.82;;
39486;SDS011;25173;50.430;18.926;2022-07-04T07:41:47;6.38;;;5.00;;
39486;SDS011;25173;50.430;18.926;2022-07-04T07:44:47;11.45;;;5.75;;
39486;SDS011;25173;50.430;18.926;2022-07-04T07:47:48;8.10;;;4.78;;
39486;SDS011;25173;50.430;18.926;2022-07-04T07:50:49;9.82;;;5.00;;
39486;SDS011;25173;50.430;18.926;2022-07-04T07:53:49;6.63;;;4.70;;
39486;SDS011;25173;50.430;18.926;2022-07-04T07:56:50;5.65;;;5.15;;
39486;SDS011;25173;50.430;18.926;2022-07-04T07:59:51;8.45;;;5.65;;
39486;SDS011;25173;50.430;18.926;2022-07-04T08:02:51;10.20;;;6.47;;
39486;SDS011;25173;50.430;18.926;2022-07-04T08:06:11;7.25;;;4.88;;
39486;SDS011;25173;50.430;18.926;2022-07-04T08:09:12;5.95;;;3.95;;
39486;SDS011;25173;50.430;18.926;2022-07-04T08:12:14;8.73;;;5.00;;
39486;SDS011;25173;50.430;18.926;2022-07-04T08:15:15;7.25;;;4.95;;
39486;SDS011;25173;50.430;18.926;2022-07-04T08:18:16;5.45;;;4.72;;
39486;SDS011;25173;50.430;18.926;2022-07-04T08:21:18;4.93;;;4.43;;
39486;SDS011;25173;50.430;18.926;2022-07-04T08:24:18;6.68;;;4.25;;
39486;SDS011;25173;50.430;18.926;2022-07-04T08:27:19;4.50;;;4.10;;
39486;SDS011;25173;50.430;18.926;2022-07-04T08:30:22;5.57;;;4.85;;
39486;SDS011;25173;50.430;18.926;2022-07-04T08:33:23;7.57;;;4.82;;
39486;SDS011;25173;50.430;18.926;2022-07-04T08:36:25;7.00;;;4.78;;
39486;SDS011;25173;50.430;18.926;2022-07-04T08:39:25;5.32;;;4.68;;
39486;SDS011;25173;50.430;18.926;2022-07-04T08:42:26;5.68;;;4.70;;
39486;SDS011;25173;50.430;18.926;2022-07-04T08:45:30;8.75;;;5.15;;
39486;SDS011;25173;50.430;18.926;2022-07-04T08:48:33;6.13;;;5.28;;
39486;SDS011;25173;50.430;18.926;2022-07-04T08:51:47;8.40;;;5.80;;
39486;SDS011;25173;50.430;18.926;2022-07-04T08:54:55;8.52;;;5.97;;
39486;SDS011;25173;50.430;18.926;2022-07-04T08:58:15;8.40;;;5.93;;
39486;SDS011;25173;50.430;18.926;2022-07-04T09:01:32;6.80;;;6.10;;
39486;SDS011;25173;50.430;18.926;2022-07-04T09:04:33;6.03;;;4.88;;
39486;SDS011;25173;50.430;18.926;2022-07-04T09:07:35;7.40;;;5.35;;
39486;SDS011;25173;50.430;18.926;2022-07-04T09:10:36;6.40;;;4.97;;
39486;SDS011;25173;50.430;18.926;2022-07-04T09:13:37;7.38;;;4.72;;
39486;SDS011;25173;50.430;18.926;2022-07-04T09:16:37;8.73;;;5.95;;
39486;SDS011;25173;50.430;18.926;2022-07-04T09:19:39;12.13;;;6.10;;
39486;SDS011;25173;50.430;18.926;2022-07-04T09:22:40;8.25;;;6.68;;
39486;SDS011;25173;50.430;18.926;2022-07-04T09:25:41;11.07;;;5.70;;
39486;SDS011;25173;50.430;18.926;2022-07-04T09:28:43;5.15;;;4.65;;
39486;SDS011;25173;50.430;18.926;2022-07-04T09:31:53;6.70;;;5.20;;
39486;SDS011;25173;50.430;18.926;2022-07-04T09:34:54;10.55;;;6.00;;
39486;SDS011;25173;50.430;18.926;2022-07-04T09:37:56;5.97;;;4.80;;
39486;SDS011;25173;50.430;18.926;2022-07-04T09:40:59;8.32;;;4.05;;
39486;SDS011;25173;50.430;18.926;2022-07-04T09:44:19;9.60;;;4.50;;
39486;SDS011;25173;50.430;18.926;2022-07-04T09:47:22;9.98;;;5.60;;
39486;SDS011;25173;50.430;18.926;2022-07-04T09:50:25;14.90;;;5.07;;
39486;SDS011;25173;50.430;18.926;2022-07-04T09:53:27;7.43;;;5.72;;
39486;SDS011;25173;50.430;18.926;2022-07-04T09:56:41;6.47;;;5.80;;
39486;SDS011;25173;50.430;18.926;2022-07-04T09:59:46;15.20;;;5.00;;
39486;SDS011;25173;50.430;18.926;2022-07-04T10:02:48;8.82;;;5.28;;
39486;SDS011;25173;50.430;18.926;2022-07-04T10:06:03;7.75;;;5.80;;
39486;SDS011;25173;50.430;18.926;2022-07-04T10:09:06;12.07;;;6.03;;
39486;SDS011;25173;50.430;18.926;2022-07-04T10:12:27;11.18;;;5.93;;
39486;SDS011;25173;50.430;18.926;2022-07-04T10:15:29;15.40;;;5.60;;
39486;SDS011;25173;50.430;18.926;2022-07-04T10:18:31;13.70;;;6.28;;
39486;SDS011;25173;50.430;18.926;2022-07-04T10:21:32;10.75;;;5.47;;
39486;SDS011;25173;50.430;18.926;2022-07-04T10:24:34;21.85;;;5.80;;
39486;SDS011;25173;50.430;18.926;2022-07-04T10:27:35;7.32;;;5.68;;
39486;SDS011;25173;50.430;18.926;2022-07-04T10:30:37;9.48;;;6.43;;
39486;SDS011;25173;50.430;18.926;2022-07-04T10:33:40;12.13;;;6.25;;
39486;SDS011;25173;50.430;18.926;2022-07-04T10:36:42;11.82;;;5.93;;
39486;SDS011;25173;50.430;18.926;2022-07-04T10:39:52;10.18;;;5.80;;
39486;SDS011;25173;50.430;18.926;2022-07-04T10:42:52;13.02;;;6.10;;
39486;SDS011;25173;50.430;18.926;2022-07-04T10:45:54;6.90;;;6.03;;
39486;SDS011;25173;50.430;18.926;2022-07-04T10:49:04;8.43;;;5.43;;
39486;SDS011;25173;50.430;18.926;2022-07-04T10:52:11;9.70;;;5.30;;
39486;SDS011;25173;50.430;18.926;2022-07-04T10:55:14;10.50;;;5.18;;
39486;SDS011;25173;50.430;18.926;2022-07-04T10:58:27;6.50;;;5.43;;
39486;SDS011;25173;50.430;18.926;2022-07-04T11:01:44;8.60;;;4.85;;
39486;SDS011;25173;50.430;18.926;2022-07-04T11:07:55;6.20;;;4.35;;
39486;SDS011;25173;50.430;18.926;2022-07-04T11:10:57;20.88;;;5.20;;
39486;SDS011;25173;50.430;18.926;2022-07-04T11:17:40;7.13;;;4.60;;
39486;SDS011;25173;50.430;18.926;2022-07-04T11:20:45;5.68;;;3.42;;
39486;SDS011;25173;50.430;18.926;2022-07-04T11:23:49;5.25;;;3.95;;
39486;SDS011;25173;50.430;18.926;2022-07-04T11:26:52;10.65;;;4.07;;
39486;SDS011;25173;50.430;18.926;2022-07-04T11:29:53;8.55;;;3.83;;
39486;SDS011;25173;50.430;18.926;2022-07-04T11:32:55;5.35;;;3.00;;
39486;SDS011;25173;50.430;18.926;2022-07-04T11:36:08;6.75;;;3.17;;
39486;SDS011;25173;50.430;18.926;2022-07-04T11:39:21;4.28;;;3.03;;
39486;SDS011;25173;50.430;18.926;2022-07-04T11:42:22;5.22;;;3.00;;
39486;SDS011;25173;50.430;18.926;2022-07-04T11:45:40;3.85;;;3.55;;
39486;SDS011;25173;50.430;18.926;2022-07-04T11:48:41;5.20;;;3.70;;
39486;SDS011;25173;50.430;18.926;2022-07-04T11:51:42;6.65;;;3.75;;
39486;SDS011;25173;50.430;18.926;2022-07-04T11:54:45;8.52;;;4.13;;
39486;SDS011;25173;50.430;18.926;2022-07-04T11:57:47;4.68;;;3.33;;
39486;SDS011;25173;50.430;18.926;2022-07-04T12:00:52;6.03;;;3.65;;
39486;SDS011;25173;50.430;18.926;2022-07-04T12:03:52;5.80;;;2.95;;
39486;SDS011;25173;50.430;18.926;2022-07-04T12:06:53;7.60;;;2.83;;
39486;SDS011;25173;50.430;18.926;2022-07-04T12:09:54;5.68;;;2.22;;
39486;SDS011;25173;50.430;18.926;2022-07-04T12:12:59;3.70;;;2.20;;
39486;SDS011;25173;50.430;18.926;2022-07-04T12:16:10;4.18;;;2.25;;
39486;SDS011;25173;50.430;18.926;2022-07-04T12:19:12;2.65;;;2.40;;
39486;SDS011;25173;50.430;18.926;2022-07-04T12:22:13;5.32;;;2.60;;
39486;SDS011;25173;50.430;18.926;2022-07-04T12:28:35;2.58;;;1.90;;
39486;SDS011;25173;50.430;18.926;2022-07-04T12:34:44;10.43;;;2.80;;
39486;SDS011;25173;50.430;18.926;2022-07-04T12:37:59;15.40;;;2.45;;
39486;SDS011;25173;50.430;18.926;2022-07-04T12:44:06;2.30;;;2.10;;
39486;SDS011;25173;50.430;18.926;2022-07-04T12:47:07;4.53;;;2.22;;
39486;SDS011;25173;50.430;18.926;2022-07-04T12:50:10;2.25;;;2.05;;
39486;SDS011;25173;50.430;18.926;2022-07-04T12:53:11;7.07;;;2.10;;
39486;SDS011;25173;50.430;18.926;2022-07-04T12:56:31;7.18;;;2.75;;
39486;SDS011;25173;50.430;18.926;2022-07-04T12:59:33;5.28;;;2.40;;
39486;SDS011;25173;50.430;18.926;2022-07-04T13:02:34;3.10;;;2.60;;
39486;SDS011;25173;50.430;18.926;2022-07-04T13:05:35;7.90;;;3.22;;
39486;SDS011;25173;50.430;18.926;2022-07-04T13:08:37;5.13;;;2.83;;
39486;SDS011;25173;50.430;18.926;2022-07-04T13:11:38;3.38;;;2.50;;
39486;SDS011;25173;50.430;18.926;2022-07-04T13:14:58;5.50;;;2.70;;
39486;SDS011;25173;50.430;18.926;2022-07-04T13:17:59;10.68;;;2.97;;
39486;SDS011;25173;50.430;18.926;2022-07-04T13:21:00;5.60;;;2.58;;
39486;SDS011;25173;50.430;18.926;2022-07-04T13:24:01;11.57;;;2.55;;
39486;SDS011;25173;50.430;18.926;2022-07-04T13:27:01;8.98;;;2.67;;
39486;SDS011;25173;50.430;18.926;2022-07-04T13:30:02;27.90;;;4.20;;
39486;SDS011;25173;50.430;18.926;2022-07-04T13:33:03;20.55;;;4.10;;
39486;SDS011;25173;50.430;18.926;2022-07-04T13:36:04;4.07;;;2.25;;
39486;SDS011;25173;50.430;18.926;2022-07-04T13:39:05;15.20;;;3.40;;
39486;SDS011;25173;50.430;18.926;2022-07-04T13:42:05;5.00;;;2.88;;
39486;SDS011;25173;50.430;18.926;2022-07-04T13:45:07;5.57;;;2.53;;
39486;SDS011;25173;50.430;18.926;2022-07-04T13:48:08;5.85;;;2.90;;
39486;SDS011;25173;50.430;18.926;2022-07-04T13:51:09;11.77;;;3.03;;
39486;SDS011;25173;50.430;18.926;2022-07-04T13:54:10;19.52;;;3.50;;
39486;SDS011;25173;50.430;18.926;2022-07-04T13:57:11;5.97;;;2.35;;
39486;SDS011;25173;50.430;18.926;2022-07-04T14:00:12;4.70;;;2.53;;
39486;SDS011;25173;50.430;18.926;2022-07-04T14:03:13;3.85;;;1.70;;
39486;SDS011;25173;50.430;18.926;2022-07-04T14:06:14;6.93;;;2.33;;
39486;SDS011;25173;50.430;18.926;2022-07-04T14:09:17;3.70;;;1.63;;
39486;SDS011;25173;50.430;18.926;2022-07-04T14:12:17;6.20;;;1.70;;
39486;SDS011;25173;50.430;18.926;2022-07-04T14:15:18;7.95;;;1.70;;
39486;SDS011;25173;50.430;18.926;2022-07-04T14:18:19;9.02;;;1.70;;
39486;SDS011;25173;50.430;18.926;2022-07-04T14:21:20;5.32;;;1.55;;
39486;SDS011;25173;50.430;18.926;2022-07-04T14:24:20;7.47;;;1.50;;
39486;SDS011;25173;50.430;18.926;2022-07-04T14:27:21;6.15;;;1.30;;
39486;SDS011;25173;50.430;18.926;2022-07-04T14:30:22;2.90;;;1.25;;
39486;SDS011;25173;50.430;18.926;2022-07-04T14:33:23;2.35;;;1.30;;
39486;SDS011;25173;50.430;18.926;2022-07-04T14:36:24;1.25;;;1.10;;
39486;SDS011;25173;50.430;18.926;2022-07-04T14:39:24;14.50;;;1.92;;
39486;SDS011;25173;50.430;18.926;2022-07-04T14:42:26;1.73;;;1.10;;
39486;SDS011;25173;50.430;18.926;2022-07-04T14:45:26;3.72;;;0.88;;
39486;SDS011;25173;50.430;18.926;2022-07-04T14:48:27;4.80;;;1.23;;
39486;SDS011;25173;50.430;18.926;2022-07-04T14:51:28;1.05;;;0.90;;
39486;SDS011;25173;50.430;18.926;2022-07-04T14:54:28;1.60;;;1.17;;
39486;SDS011;25173;50.430;18.926;2022-07-04T14:57:29;1.73;;;1.00;;
39486;SDS011;25173;50.430;18.926;2022-07-04T15:00:30;8.32;;;2.08;;
39486;SDS011;25173;50.430;18.926;2022-07-04T15:03:31;4.30;;;1.30;;
39486;SDS011;25173;50.430;18.926;2022-07-04T15:06:31;3.42;;;1.25;;
39486;SDS011;25173;50.430;18.926;2022-07-04T15:09:32;2.35;;;1.10;;
39486;SDS011;25173;50.430;18.926;2022-07-04T15:12:36;1.20;;;1.10;;
39486;SDS011;25173;50.430;18.926;2022-07-04T15:15:36;3.28;;;1.27;;
39486;SDS011;25173;50.430;18.926;2022-07-04T15:18:37;1.15;;;1.00;;
39486;SDS011;25173;50.430;18.926;2022-07-04T15:21:39;5.00;;;1.50;;
39486;SDS011;25173;50.430;18.926;2022-07-04T15:24:58;4.90;;;1.42;;
39486;SDS011;25173;50.430;18.926;2022-07-04T15:27:59;3.03;;;1.13;;
39486;SDS011;25173;50.430;18.926;2022-07-04T15:31:00;28.52;;;3.22;;
39486;SDS011;25173;50.430;18.926;2022-07-04T15:34:00;8.07;;;1.63;;
39486;SDS011;25173;50.430;18.926;2022-07-04T15:37:01;1.48;;;1.10;;
39486;SDS011;25173;50.430;18.926;2022-07-04T15:40:02;6.40;;;1.30;;
39486;SDS011;25173;50.430;18.926;2022-07-04T15:43:03;4.53;;;1.90;;
39486;SDS011;25173;50.430;18.926;2022-07-04T15:46:04;3.63;;;1.38;;
39486;SDS011;25173;50.430;18.926;2022-07-04T15:49:04;4.03;;;1.35;;
39486;SDS011;25173;50.430;18.926;2022-07-04T15:52:05;1.95;;;1.27;;
39486;SDS011;25173;50.430;18.926;2022-07-04T15:55:06;1.55;;;1.08;;
39486;SDS011;25173;50.430;18.926;2022-07-04T15:58:08;2.05;;;1.05;;
39486;SDS011;25173;50.430;18.926;2022-07-04T16:01:08;2.33;;;1.20;;
39486;SDS011;25173;50.430;18.926;2022-07-04T16:04:09;3.42;;;1.23;;
39486;SDS011;25173;50.430;18.926;2022-07-04T16:07:10;3.97;;;1.40;;
39486;SDS011;25173;50.430;18.926;2022-07-04T16:10:11;3.10;;;1.40;;
39486;SDS011;25173;50.430;18.926;2022-07-04T16:13:11;1.23;;;1.13;;
39486;SDS011;25173;50.430;18.926;2022-07-04T16:16:12;5.35;;;1.58;;
39486;SDS011;25173;50.430;18.926;2022-07-04T16:19:13;5.57;;;1.20;;
39486;SDS011;25173;50.430;18.926;2022-07-04T16:22:14;4.70;;;1.40;;
39486;SDS011;25173;50.430;18.926;2022-07-04T16:25:15;5.35;;;2.03;;
39486;SDS011;25173;50.430;18.926;2022-07-04T16:28:16;9.32;;;1.52;;
39486;SDS011;25173;50.430;18.926;2022-07-04T16:31:16;8.65;;;1.75;;
39486;SDS011;25173;50.430;18.926;2022-07-04T16:34:19;2.40;;;1.92;;
39486;SDS011;25173;50.430;18.926;2022-07-04T16:37:20;1.65;;;1.52;;
39486;SDS011;25173;50.430;18.926;2022-07-04T16:40:21;8.30;;;1.88;;
39486;SDS011;25173;50.430;18.926;2022-07-04T16:43:22;3.40;;;1.45;;
39486;SDS011;25173;50.430;18.926;2022-07-04T16:46:23;2.13;;;1.40;;
39486;SDS011;25173;50.430;18.926;2022-07-04T16:49:23;3.70;;;1.33;;
39486;SDS011;25173;50.430;18.926;2022-07-04T16:52:24;4.55;;;1.38;;
39486;SDS011;25173;50.430;18.926;2022-07-04T16:55:25;4.57;;;1.58;;
39486;SDS011;25173;50.430;18.926;2022-07-04T16:58:26;1.85;;;1.48;;
39486;SDS011;25173;50.430;18.926;2022-07-04T17:01:26;8.18;;;1.80;;
39486;SDS011;25173;50.430;18.926;2022-07-04T17:04:27;3.00;;;1.30;;
39486;SDS011;25173;50.430;18.926;2022-07-04T17:07:28;6.50;;;1.83;;
39486;SDS011;25173;50.430;18.926;2022-07-04T17:10:29;4.03;;;1.83;;
39486;SDS011;25173;50.430;18.926;2022-07-04T17:13:29;7.75;;;2.17;;
39486;SDS011;25173;50.430;18.926;2022-07-04T17:16:30;7.57;;;2.17;;
39486;SDS011;25173;50.430;18.926;2022-07-04T17:19:31;6.45;;;1.98;;
39486;SDS011;25173;50.430;18.926;2022-07-04T17:22:31;7.47;;;1.83;;
39486;SDS011;25173;50.430;18.926;2022-07-04T17:25:32;7.68;;;1.42;;
39486;SDS011;25173;50.430;18.926;2022-07-04T17:28:33;5.88;;;1.55;;
39486;SDS011;25173;50.430;18.926;2022-07-04T17:31:33;2.90;;;1.20;;
39486;SDS011;25173;50.430;18.926;2022-07-04T17:34:34;2.38;;;1.30;;
39486;SDS011;25173;50.430;18.926;2022-07-04T17:37:35;2.75;;;1.67;;
39486;SDS011;25173;50.430;18.926;2022-07-04T17:40:36;3.72;;;1.73;;
39486;SDS011;25173;50.430;18.926;2022-07-04T17:43:37;2.17;;;1.50;;
39486;SDS011;25173;50.430;18.926;2022-07-04T17:46:38;9.30;;;1.73;;
39486;SDS011;25173;50.430;18.926;2022-07-04T17:49:40;13.90;;;1.40;;
39486;SDS011;25173;50.430;18.926;2022-07-04T17:52:41;7.50;;;1.73;;
39486;SDS011;25173;50.430;18.926;2022-07-04T17:55:41;4.63;;;1.27;;
39486;SDS011;25173;50.430;18.926;2022-07-04T17:58:42;1.98;;;1.33;;
39486;SDS011;25173;50.430;18.926;2022-07-04T18:01:43;1.50;;;1.17;;
39486;SDS011;25173;50.430;18.926;2022-07-04T18:04:43;2.60;;;1.55;;
39486;SDS011;25173;50.430;18.926;2022-07-04T18:07:44;4.00;;;1.35;;